createdAt,value
2019-05-16T00:03:31.407Z,3.73
2019-05-16T00:08:34.818Z,2.50
2019-05-16T00:13:38.463Z,1.17
2019-05-16T00:18:41.949Z,2.70
2019-05-16T00:23:45.446Z,1.07
2019-05-16T00:28:48.880Z,1.83
2019-05-16T00:33:52.296Z,2.40
2019-05-16T00:38:57.724Z,1.00
2019-05-16T00:44:00.855Z,1.63
2019-05-16T00:49:04.347Z,0.80
2019-05-16T00:54:08.363Z,1.70
2019-05-16T00:59:12.096Z,1.83
2019-05-16T01:04:15.537Z,1.33
2019-05-16T01:09:18.985Z,1.60
2019-05-16T01:14:22.363Z,1.37
2019-05-16T01:19:27.747Z,1.10
2019-05-16T01:24:30.935Z,1.27
2019-05-16T01:29:34.382Z,1.53
2019-05-16T01:34:37.948Z,0.67
2019-05-16T01:39:41.342Z,1.23
2019-05-16T01:44:44.842Z,1.27
2019-05-16T01:49:48.880Z,1.27
2019-05-16T01:54:52.506Z,1.00
2019-05-16T01:59:55.935Z,1.13
2019-05-16T02:04:59.417Z,0.97
2019-05-16T02:10:02.922Z,1.03
2019-05-16T02:15:08.172Z,0.77
2019-05-16T02:20:12.001Z,1.37
2019-05-16T02:25:18.578Z,2.23
2019-05-16T02:30:22.132Z,1.37
2019-05-16T02:35:25.649Z,1.03
2019-05-16T02:40:31.242Z,1.43
2019-05-16T02:45:34.394Z,1.07
2019-05-16T02:50:37.838Z,2.77
2019-05-16T02:55:41.270Z,1.50
2019-05-16T03:00:44.796Z,1.20
2019-05-16T03:05:50.814Z,1.03
2019-05-16T03:10:55.965Z,2.07
2019-05-16T03:16:02.171Z,1.73
2019-05-16T03:21:07.355Z,4.10
2019-05-16T03:26:11.703Z,2.33
2019-05-16T03:31:16.201Z,1.20
2019-05-16T03:36:25.298Z,1.60
2019-05-16T03:41:24.962Z,3.87
2019-05-16T03:46:30.918Z,2.60
2019-05-16T03:51:33.543Z,4.27
2019-05-16T03:56:36.969Z,1.10
2019-05-16T04:01:41.159Z,1.10
2019-05-16T04:06:44.613Z,2.10
2019-05-16T04:11:50.875Z,2.07
2019-05-16T04:16:53.332Z,2.50
2019-05-16T04:21:56.770Z,1.90
2019-05-16T04:27:00.975Z,2.33
2019-05-16T04:32:04.560Z,2.90
2019-05-16T04:37:11.280Z,1.33
2019-05-16T04:42:13.152Z,1.87
2019-05-16T04:47:16.579Z,5.23
2019-05-16T04:52:21.725Z,5.13
2019-05-16T04:57:25.160Z,1.93
2019-05-16T05:02:31.003Z,2.03
2019-05-16T05:07:33.730Z,1.67
2019-05-16T05:12:37.136Z,3.30
2019-05-16T05:17:41.493Z,4.07
2019-05-16T05:22:44.981Z,2.27
2019-05-16T05:27:50.113Z,4.37
2019-05-16T05:32:53.718Z,5.13
2019-05-16T05:37:57.149Z,2.03
2019-05-16T05:43:00.574Z,1.80
2019-05-16T05:48:04.084Z,2.50
2019-05-16T05:53:10.056Z,1.67
2019-05-16T05:58:12.713Z,2.43
2019-05-16T06:03:16.170Z,3.50
2019-05-16T06:08:20.660Z,2.30
2019-05-16T06:13:24.026Z,1.90
2019-05-16T06:18:27.456Z,1.30
2019-05-16T06:23:31.280Z,2.17
2019-05-16T06:28:34.818Z,2.43
2019-05-16T06:33:38.239Z,1.63
2019-05-16T06:38:42.507Z,1.73
2019-05-16T06:43:45.935Z,1.63
2019-05-16T06:48:50.613Z,2.47
2019-05-16T06:53:54.226Z,1.73
2019-05-16T06:58:57.710Z,1.60
2019-05-16T07:04:01.146Z,3.60
2019-05-16T07:09:06.424Z,1.13
2019-05-16T07:14:10.590Z,1.50
2019-05-16T07:19:14.228Z,3.73
2019-05-16T07:24:19.757Z,1.30
2019-05-16T07:29:22.848Z,3.73
2019-05-16T07:34:26.276Z,2.27
2019-05-16T07:39:30.672Z,2.43
2019-05-16T07:44:34.309Z,1.93
2019-05-16T07:49:37.740Z,2.83
2019-05-16T07:54:41.143Z,4.03
2019-05-16T07:59:44.590Z,4.53
2019-05-16T08:04:50.149Z,2.30
2019-05-16T08:09:53.318Z,1.50
2019-05-16T08:14:56.746Z,4.80
2019-05-16T08:20:00.453Z,2.07
2019-05-16T08:25:05.809Z,4.13
2019-05-16T08:30:11.221Z,4.07
2019-05-16T08:35:14.824Z,3.67
2019-05-16T08:40:21.381Z,3.30
2019-05-16T08:45:23.730Z,4.53
2019-05-16T08:50:27.285Z,5.10
2019-05-16T08:55:31.431Z,1.67
2019-05-16T09:00:34.822Z,2.87
2019-05-16T09:05:42.629Z,4.70
2019-05-16T09:10:51.449Z,5.17
2019-05-16T09:15:48.545Z,4.23
2019-05-16T09:20:53.349Z,1.63
2019-05-16T09:25:58.477Z,3.07
2019-05-16T09:31:02.091Z,8.37
2019-05-16T09:36:08.043Z,2.60
2019-05-16T09:41:10.710Z,4.23
2019-05-16T09:46:17.186Z,1.97
2019-05-16T09:51:21.441Z,3.67
2019-05-16T09:56:26.982Z,9.20
2019-05-16T10:01:30.152Z,4.50
2019-05-16T10:06:33.713Z,1.50
2019-05-16T10:11:42.115Z,3.23
2019-05-16T10:16:42.395Z,2.13
2019-05-16T10:21:45.967Z,2.90
2019-05-16T10:26:53.854Z,3.97
2019-05-16T10:31:56.844Z,3.73
2019-05-16T10:36:59.952Z,2.10
2019-05-16T10:42:03.351Z,3.13
2019-05-16T10:47:07.604Z,2.10
2019-05-16T10:52:11.155Z,3.70
2019-05-16T10:57:14.671Z,5.10
2019-05-16T11:02:18.326Z,2.93
2019-05-16T11:07:21.863Z,2.37
2019-05-16T11:12:45.200Z,1.87
2019-05-16T11:17:30.443Z,2.40
2019-05-16T11:22:36.772Z,4.43
2019-05-16T11:27:39.047Z,5.57
2019-05-16T11:32:42.466Z,3.47
2019-05-16T11:37:47.208Z,4.80
2019-05-16T11:43:05.675Z,2.93
2019-05-16T11:47:56.700Z,4.40
2019-05-16T11:53:00.235Z,3.40
2019-05-16T11:58:03.728Z,4.20
2019-05-16T12:03:07.568Z,5.00
2019-05-16T12:08:10.997Z,4.37
2019-05-16T12:13:27.314Z,2.33
2019-05-16T12:18:19.682Z,3.03
2019-05-16T12:23:23.117Z,4.20
2019-05-16T12:28:27.577Z,5.53
2019-05-16T12:33:31.015Z,4.27
2019-05-16T12:38:34.445Z,3.47
2019-05-16T12:43:48.719Z,2.63
2019-05-16T12:48:43.034Z,3.57
2019-05-16T12:53:47.752Z,2.57
2019-05-16T12:58:51.483Z,7.50
2019-05-16T13:03:54.912Z,2.60
2019-05-16T13:08:58.335Z,3.83
2019-05-16T13:14:06.466Z,4.70
2019-05-16T13:19:07.257Z,6.73
2019-05-16T13:24:10.734Z,8.90
2019-05-16T13:29:14.160Z,4.77
2019-05-16T13:34:18.036Z,5.13
2019-05-16T13:39:21.755Z,4.63
2019-05-16T13:44:27.378Z,3.40
2019-05-16T13:49:30.403Z,4.00
2019-05-16T13:54:36.251Z,3.77
2019-05-16T13:59:38.957Z,3.80
2019-05-16T14:04:42.446Z,3.70
2019-05-16T14:09:47.155Z,3.80
2019-05-16T14:14:51.289Z,5.27
2019-05-16T14:19:57.146Z,13.40
2019-05-16T14:24:59.856Z,9.27
2019-05-16T14:30:07.353Z,5.30
2019-05-16T14:35:09.413Z,6.10
2019-05-16T14:40:13.557Z,3.83
2019-05-16T14:45:18.831Z,7.27
2019-05-16T14:50:22.333Z,5.40
2019-05-16T14:55:27.476Z,3.70
2019-05-16T15:00:31.148Z,4.60
2019-05-16T15:05:41.811Z,3.67
2019-05-16T15:10:39.723Z,3.63
2019-05-16T15:15:43.224Z,4.33
2019-05-16T15:20:48.392Z,8.10
2019-05-16T15:25:51.801Z,3.70
2019-05-16T15:30:57.348Z,3.60
2019-05-16T15:36:00.456Z,4.73
2019-05-16T15:41:03.884Z,10.33
2019-05-16T15:46:08.429Z,5.90
2019-05-16T15:51:12.686Z,5.47
2019-05-16T15:56:17.852Z,8.07
2019-05-16T16:01:21.484Z,6.30
2019-05-16T16:06:27.475Z,9.47
2019-05-16T16:11:30.329Z,8.30
2019-05-16T16:16:33.664Z,9.97
2019-05-16T16:21:37.940Z,12.50
2019-05-16T16:26:41.723Z,7.33
2019-05-16T16:31:47.501Z,9.40
2019-05-16T16:36:50.297Z,8.00
2019-05-16T16:41:53.801Z,6.00
2019-05-16T16:46:57.465Z,7.73
2019-05-16T16:52:00.932Z,8.53
2019-05-16T16:57:07.490Z,5.80
2019-05-16T17:02:09.518Z,7.00
2019-05-16T17:07:12.978Z,8.03
2019-05-16T17:12:16.401Z,7.17
2019-05-16T17:17:19.821Z,6.80
2019-05-16T17:22:23.261Z,7.70
2019-05-16T17:27:26.995Z,10.03
2019-05-16T17:32:30.422Z,8.53
2019-05-16T17:37:33.861Z,7.57
2019-05-16T17:42:37.453Z,8.87
2019-05-16T17:47:40.999Z,7.07
2019-05-16T17:52:47.305Z,8.30
2019-05-16T17:58:07.941Z,6.90
2019-05-16T18:03:18.602Z,9.40
2019-05-16T18:13:52.494Z,5.60
2019-05-16T18:18:57.546Z,5.93
2019-05-16T18:24:01.001Z,6.63
2019-05-16T18:29:06.716Z,5.30
2019-05-16T18:34:09.757Z,6.50
2019-05-16T18:39:13.187Z,5.40
2019-05-16T18:44:16.978Z,6.23
2019-05-16T18:49:20.401Z,8.27
2019-05-16T18:54:26.489Z,8.17
2019-05-16T18:59:28.977Z,8.20
2019-05-16T19:04:32.489Z,8.03
2019-05-16T19:09:37.449Z,9.97
2019-05-16T19:14:41.054Z,9.50
2019-05-16T19:19:46.447Z,9.80
2019-05-16T19:24:49.762Z,10.40
2019-05-16T19:29:53.187Z,8.47
2019-05-16T19:34:57.429Z,8.23
2019-05-16T19:40:00.920Z,10.03
2019-05-16T19:45:09.070Z,9.57
2019-05-16T19:50:12.755Z,8.43
2019-05-16T19:55:16.253Z,9.40
2019-05-16T20:00:20.776Z,7.40
2019-05-16T20:05:26.507Z,8.90
2019-05-16T20:10:29.585Z,8.80
2019-05-16T20:15:33.107Z,8.07
2019-05-16T20:20:37.252Z,9.80
2019-05-16T20:25:40.839Z,10.50
2019-05-16T20:30:44.272Z,8.30
2019-05-16T20:35:47.687Z,9.47
2019-05-16T20:40:51.151Z,11.27
2019-05-16T20:45:56.608Z,9.87
2019-05-16T20:50:59.721Z,10.33
2019-05-16T20:56:03.160Z,9.63
2019-05-16T21:01:07.172Z,9.57
2019-05-16T21:06:10.723Z,8.87
2019-05-16T21:11:14.142Z,9.30
2019-05-16T21:16:18.272Z,8.77
2019-05-16T21:21:21.780Z,7.30
2019-05-16T21:26:26.271Z,9.23
2019-05-16T21:31:29.864Z,9.13
2019-05-16T21:36:33.281Z,10.03
2019-05-16T21:41:36.714Z,8.03
2019-05-16T21:46:40.130Z,8.20
2019-05-16T21:51:43.612Z,8.37
2019-05-16T21:56:47.041Z,8.03
2019-05-16T22:01:50.955Z,7.93
2019-05-16T22:06:56.543Z,10.57
2019-05-16T22:11:59.601Z,10.97
2019-05-16T22:17:03.032Z,8.17
2019-05-16T22:22:07.415Z,12.23
2019-05-16T22:27:10.993Z,9.30
2019-05-16T22:32:16.435Z,8.67
2019-05-16T22:37:19.534Z,9.37
2019-05-16T22:42:22.964Z,9.73
2019-05-16T22:47:26.710Z,9.97
2019-05-16T22:52:30.290Z,8.70
2019-05-16T22:57:33.779Z,9.33
2019-05-16T23:02:37.211Z,8.13
2019-05-16T23:07:40.656Z,8.77
2019-05-16T23:12:44.078Z,8.10
2019-05-16T23:17:47.504Z,10.87
2019-05-16T23:22:50.948Z,12.23
2019-05-16T23:27:56.609Z,8.93
2019-05-16T23:32:59.587Z,8.70
2019-05-16T23:38:14.674Z,9.70
2019-05-16T23:43:08.185Z,10.23
2019-05-16T23:48:11.625Z,9.60
2019-05-16T23:53:16.425Z,12.33
2019-05-16T23:58:20.006Z,10.27
